sensor_id;sensor_type;location;lat;lon;timestamp;P1;durP1;ratioP1;P2;durP2;ratioP2
73678;SDS011;61978;52.742;16.962;2022-10-04T00:01:25;20.43;;;3.33;;
73678;SDS011;61978;52.742;16.962;2022-10-04T00:04:12;17.57;;;4.00;;
73678;SDS011;61978;52.742;16.962;2022-10-04T00:06:49;13.45;;;2.92;;
73678;SDS011;61978;52.742;16.962;2022-10-04T00:09:19;20.57;;;3.50;;
73678;SDS011;61978;52.742;16.962;2022-10-04T00:11:52;16.73;;;3.20;;
73678;SDS011;61978;52.742;16.962;2022-10-04T00:14:21;18.92;;;3.37;;
73678;SDS011;61978;52.742;16.962;2022-10-04T00:17:06;14.63;;;2.98;;
73678;SDS011;61978;52.742;16.962;2022-10-04T00:22:08;14.28;;;3.27;;
73678;SDS011;61978;52.742;16.962;2022-10-04T00:27:38;21.75;;;4.12;;
73678;SDS011;61978;52.742;16.962;2022-10-04T00:30:14;16.25;;;3.47;;
73678;SDS011;61978;52.742;16.962;2022-10-04T00:37:56;17.35;;;3.17;;
73678;SDS011;61978;52.742;16.962;2022-10-04T00:40:42;15.43;;;3.58;;
73678;SDS011;61978;52.742;16.962;2022-10-04T00:43:14;24.65;;;4.17;;
73678;SDS011;61978;52.742;16.962;2022-10-04T00:45:44;17.23;;;3.50;;
73678;SDS011;61978;52.742;16.962;2022-10-04T00:48:35;16.37;;;3.10;;
73678;SDS011;61978;52.742;16.962;2022-10-04T00:51:18;18.42;;;3.40;;
73678;SDS011;61978;52.742;16.962;2022-10-04T00:53:48;20.77;;;3.80;;
73678;SDS011;61978;52.742;16.962;2022-10-04T00:56:27;23.60;;;3.70;;
73678;SDS011;61978;52.742;16.962;2022-10-04T01:01:41;19.45;;;3.70;;
73678;SDS011;61978;52.742;16.962;2022-10-04T01:04:22;14.63;;;3.12;;
73678;SDS011;61978;52.742;16.962;2022-10-04T01:06:59;20.00;;;3.33;;
73678;SDS011;61978;52.742;16.962;2022-10-04T01:09:29;15.18;;;3.12;;
73678;SDS011;61978;52.742;16.962;2022-10-04T01:12:01;19.95;;;4.28;;
73678;SDS011;61978;52.742;16.962;2022-10-04T01:17:20;25.68;;;3.55;;
73678;SDS011;61978;52.742;16.962;2022-10-04T01:19:49;20.97;;;2.95;;
73678;SDS011;61978;52.742;16.962;2022-10-04T01:25:00;17.57;;;2.98;;
73678;SDS011;61978;52.742;16.962;2022-10-04T01:27:34;19.15;;;2.92;;
73678;SDS011;61978;52.742;16.962;2022-10-04T01:30:12;17.25;;;2.92;;
73678;SDS011;61978;52.742;16.962;2022-10-04T01:32:41;19.42;;;3.75;;
73678;SDS011;61978;52.742;16.962;2022-10-04T01:35:09;11.55;;;2.95;;
73678;SDS011;61978;52.742;16.962;2022-10-04T01:37:37;21.10;;;3.45;;
73678;SDS011;61978;52.742;16.962;2022-10-04T01:40:05;19.92;;;3.17;;
73678;SDS011;61978;52.742;16.962;2022-10-04T01:42:41;18.55;;;3.75;;
73678;SDS011;61978;52.742;16.962;2022-10-04T01:45:29;23.65;;;4.25;;
73678;SDS011;61978;52.742;16.962;2022-10-04T01:48:00;15.93;;;3.37;;
73678;SDS011;61978;52.742;16.962;2022-10-04T01:50:36;14.25;;;3.58;;
73678;SDS011;61978;52.742;16.962;2022-10-04T01:53:10;14.58;;;2.80;;
73678;SDS011;61978;52.742;16.962;2022-10-04T01:55:41;23.87;;;3.90;;
73678;SDS011;61978;52.742;16.962;2022-10-04T01:58:18;16.93;;;3.17;;
73678;SDS011;61978;52.742;16.962;2022-10-04T02:00:49;16.07;;;4.03;;
73678;SDS011;61978;52.742;16.962;2022-10-04T02:03:37;18.73;;;3.50;;
73678;SDS011;61978;52.742;16.962;2022-10-04T02:06:03;20.57;;;3.55;;
73678;SDS011;61978;52.742;16.962;2022-10-04T02:08:33;14.93;;;3.75;;
73678;SDS011;61978;52.742;16.962;2022-10-04T02:11:04;19.90;;;3.50;;
73678;SDS011;61978;52.742;16.962;2022-10-04T02:13:32;12.85;;;3.00;;
73678;SDS011;61978;52.742;16.962;2022-10-04T02:16:02;17.70;;;3.33;;
73678;SDS011;61978;52.742;16.962;2022-10-04T02:18:30;19.23;;;4.70;;
73678;SDS011;61978;52.742;16.962;2022-10-04T02:20:59;16.40;;;3.27;;
73678;SDS011;61978;52.742;16.962;2022-10-04T02:23:28;21.45;;;3.17;;
73678;SDS011;61978;52.742;16.962;2022-10-04T02:25:55;16.82;;;3.40;;
73678;SDS011;61978;52.742;16.962;2022-10-04T02:28:21;23.15;;;4.20;;
73678;SDS011;61978;52.742;16.962;2022-10-04T02:30:48;24.87;;;3.67;;
73678;SDS011;61978;52.742;16.962;2022-10-04T02:33:42;19.37;;;3.50;;
73678;SDS011;61978;52.742;16.962;2022-10-04T02:36:14;16.40;;;3.62;;
73678;SDS011;61978;52.742;16.962;2022-10-04T02:38:53;15.80;;;2.42;;
73678;SDS011;61978;52.742;16.962;2022-10-04T02:41:24;18.20;;;3.55;;
73678;SDS011;61978;52.742;16.962;2022-10-04T02:44:19;12.65;;;2.87;;
73678;SDS011;61978;52.742;16.962;2022-10-04T02:49:48;25.08;;;4.60;;
73678;SDS011;61978;52.742;16.962;2022-10-04T02:52:43;19.30;;;3.60;;
73678;SDS011;61978;52.742;16.962;2022-10-04T02:57:48;22.70;;;3.87;;
73678;SDS011;61978;52.742;16.962;2022-10-04T03:00:19;14.15;;;2.77;;
73678;SDS011;61978;52.742;16.962;2022-10-04T03:03:12;20.02;;;3.87;;
73678;SDS011;61978;52.742;16.962;2022-10-04T03:05:52;17.62;;;3.22;;
73678;SDS011;61978;52.742;16.962;2022-10-04T03:08:15;21.65;;;4.20;;
73678;SDS011;61978;52.742;16.962;2022-10-04T03:10:42;18.12;;;3.20;;
73678;SDS011;61978;52.742;16.962;2022-10-04T03:13:09;19.77;;;3.50;;
73678;SDS011;61978;52.742;16.962;2022-10-04T03:15:38;26.87;;;4.45;;
73678;SDS011;61978;52.742;16.962;2022-10-04T03:18:05;12.78;;;3.22;;
73678;SDS011;61978;52.742;16.962;2022-10-04T03:20:35;17.73;;;3.25;;
73678;SDS011;61978;52.742;16.962;2022-10-04T03:23:03;24.40;;;4.85;;
73678;SDS011;61978;52.742;16.962;2022-10-04T03:25:39;22.93;;;4.20;;
73678;SDS011;61978;52.742;16.962;2022-10-04T03:28:17;17.30;;;3.20;;
73678;SDS011;61978;52.742;16.962;2022-10-04T03:30:46;18.57;;;3.35;;
73678;SDS011;61978;52.742;16.962;2022-10-04T03:33:15;19.67;;;3.67;;
73678;SDS011;61978;52.742;16.962;2022-10-04T03:35:46;16.35;;;3.62;;
73678;SDS011;61978;52.742;16.962;2022-10-04T03:40:48;18.30;;;4.65;;
73678;SDS011;61978;52.742;16.962;2022-10-04T03:43:18;17.35;;;4.33;;
73678;SDS011;61978;52.742;16.962;2022-10-04T03:45:49;17.73;;;4.50;;
73678;SDS011;61978;52.742;16.962;2022-10-04T03:48:21;21.23;;;4.20;;
73678;SDS011;61978;52.742;16.962;2022-10-04T03:54:12;20.92;;;4.12;;
73678;SDS011;61978;52.742;16.962;2022-10-04T04:00:08;24.43;;;5.08;;
73678;SDS011;61978;52.742;16.962;2022-10-04T04:02:44;17.32;;;5.12;;
73678;SDS011;61978;52.742;16.962;2022-10-04T04:05:33;24.95;;;5.87;;
73678;SDS011;61978;52.742;16.962;2022-10-04T04:08:15;22.25;;;5.85;;
73678;SDS011;61978;52.742;16.962;2022-10-04T04:10:56;25.37;;;7.10;;
73678;SDS011;61978;52.742;16.962;2022-10-04T04:13:35;23.38;;;5.92;;
73678;SDS011;61978;52.742;16.962;2022-10-04T04:16:12;24.95;;;6.22;;
73678;SDS011;61978;52.742;16.962;2022-10-04T04:18:40;33.95;;;7.83;;
73678;SDS011;61978;52.742;16.962;2022-10-04T04:21:11;24.52;;;7.83;;
73678;SDS011;61978;52.742;16.962;2022-10-04T04:23:48;21.68;;;6.45;;
73678;SDS011;61978;52.742;16.962;2022-10-04T04:28:48;19.67;;;7.75;;
73678;SDS011;61978;52.742;16.962;2022-10-04T04:31:28;24.77;;;9.10;;
73678;SDS011;61978;52.742;16.962;2022-10-04T04:33:59;34.92;;;9.98;;
73678;SDS011;61978;52.742;16.962;2022-10-04T04:36:31;18.55;;;7.05;;
73678;SDS011;61978;52.742;16.962;2022-10-04T04:39:07;40.98;;;10.00;;
73678;SDS011;61978;52.742;16.962;2022-10-04T04:44:52;32.40;;;11.35;;
73678;SDS011;61978;52.742;16.962;2022-10-04T04:52:38;35.05;;;12.30;;
73678;SDS011;61978;52.742;16.962;2022-10-04T04:55:13;38.10;;;12.47;;
73678;SDS011;61978;52.742;16.962;2022-10-04T04:57:40;36.13;;;13.58;;
73678;SDS011;61978;52.742;16.962;2022-10-04T05:00:15;32.28;;;12.78;;
73678;SDS011;61978;52.742;16.962;2022-10-04T05:02:49;32.10;;;12.85;;
73678;SDS011;61978;52.742;16.962;2022-10-04T05:05:22;23.98;;;12.40;;
73678;SDS011;61978;52.742;16.962;2022-10-04T05:10:45;25.92;;;12.45;;
73678;SDS011;61978;52.742;16.962;2022-10-04T05:13:14;37.78;;;14.00;;
73678;SDS011;61978;52.742;16.962;2022-10-04T05:15:43;30.72;;;11.93;;
73678;SDS011;61978;52.742;16.962;2022-10-04T05:18:21;37.98;;;12.13;;
73678;SDS011;61978;52.742;16.962;2022-10-04T05:23:47;25.52;;;12.15;;
73678;SDS011;61978;52.742;16.962;2022-10-04T05:26:15;33.13;;;12.98;;
73678;SDS011;61978;52.742;16.962;2022-10-04T05:28:45;27.35;;;13.08;;
73678;SDS011;61978;52.742;16.962;2022-10-04T05:34:02;35.43;;;10.80;;
73678;SDS011;61978;52.742;16.962;2022-10-04T05:42:10;27.07;;;11.20;;
73678;SDS011;61978;52.742;16.962;2022-10-04T05:44:53;30.97;;;11.28;;
73678;SDS011;61978;52.742;16.962;2022-10-04T05:47:22;28.27;;;10.55;;
73678;SDS011;61978;52.742;16.962;2022-10-04T05:49:55;31.75;;;10.68;;
73678;SDS011;61978;52.742;16.962;2022-10-04T05:52:24;20.48;;;9.43;;
73678;SDS011;61978;52.742;16.962;2022-10-04T05:58:14;30.52;;;11.10;;
73678;SDS011;61978;52.742;16.962;2022-10-04T06:09:09;18.98;;;7.72;;
73678;SDS011;61978;52.742;16.962;2022-10-04T06:30:27;19.07;;;9.00;;
73678;SDS011;61978;52.742;16.962;2022-10-04T06:43:57;20.17;;;7.90;;
73678;SDS011;61978;52.742;16.962;2022-10-04T06:52:28;10.10;;;5.25;;
73678;SDS011;61978;52.742;16.962;2022-10-04T07:00:23;14.35;;;5.45;;
73678;SDS011;61978;52.742;16.962;2022-10-04T07:06:01;19.10;;;6.67;;
73678;SDS011;61978;52.742;16.962;2022-10-04T07:11:03;34.98;;;19.55;;
73678;SDS011;61978;52.742;16.962;2022-10-04T07:27:35;16.23;;;4.17;;
73678;SDS011;61978;52.742;16.962;2022-10-04T07:30:44;16.62;;;5.05;;
73678;SDS011;61978;52.742;16.962;2022-10-04T07:33:16;9.00;;;3.52;;
73678;SDS011;61978;52.742;16.962;2022-10-04T07:35:45;14.68;;;4.12;;
73678;SDS011;61978;52.742;16.962;2022-10-04T07:43:56;11.78;;;3.83;;
73678;SDS011;61978;52.742;16.962;2022-10-04T07:49:01;13.80;;;3.42;;
73678;SDS011;61978;52.742;16.962;2022-10-04T07:51:35;9.13;;;2.67;;
73678;SDS011;61978;52.742;16.962;2022-10-04T07:59:59;16.23;;;2.55;;
73678;SDS011;61978;52.742;16.962;2022-10-04T08:08:04;10.28;;;2.98;;
73678;SDS011;61978;52.742;16.962;2022-10-04T08:10:37;6.83;;;2.40;;
73678;SDS011;61978;52.742;16.962;2022-10-04T08:15:48;8.33;;;2.42;;
73678;SDS011;61978;52.742;16.962;2022-10-04T08:21:05;10.75;;;2.92;;
73678;SDS011;61978;52.742;16.962;2022-10-04T08:23:54;8.70;;;2.65;;
73678;SDS011;61978;52.742;16.962;2022-10-04T08:57:55;13.32;;;2.72;;
73678;SDS011;61978;52.742;16.962;2022-10-04T09:06:12;5.50;;;2.20;;
73678;SDS011;61978;52.742;16.962;2022-10-04T09:14:36;10.20;;;2.87;;
73678;SDS011;61978;52.742;16.962;2022-10-04T09:30:41;8.45;;;3.08;;
73678;SDS011;61978;52.742;16.962;2022-10-04T09:49:39;8.80;;;2.37;;
73678;SDS011;61978;52.742;16.962;2022-10-04T09:55:11;13.35;;;1.90;;
73678;SDS011;61978;52.742;16.962;2022-10-04T09:57:46;10.50;;;2.52;;
73678;SDS011;61978;52.742;16.962;2022-10-04T10:00:18;8.10;;;1.67;;
73678;SDS011;61978;52.742;16.962;2022-10-04T10:08:35;4.53;;;2.75;;
73678;SDS011;61978;52.742;16.962;2022-10-04T10:20:00;7.35;;;2.47;;
73678;SDS011;61978;52.742;16.962;2022-10-04T10:28:27;4.25;;;2.08;;
73678;SDS011;61978;52.742;16.962;2022-10-04T10:33:59;8.08;;;1.65;;
73678;SDS011;61978;52.742;16.962;2022-10-04T10:36:37;6.00;;;1.65;;
73678;SDS011;61978;52.742;16.962;2022-10-04T10:48:13;3.87;;;1.45;;
73678;SDS011;61978;52.742;16.962;2022-10-04T10:50:50;6.40;;;2.17;;
73678;SDS011;61978;52.742;16.962;2022-10-04T10:53:28;6.62;;;1.67;;
73678;SDS011;61978;52.742;16.962;2022-10-04T11:07:53;3.25;;;1.10;;
73678;SDS011;61978;52.742;16.962;2022-10-04T11:19:24;3.12;;;1.17;;
73678;SDS011;61978;52.742;16.962;2022-10-04T11:22:08;6.12;;;1.22;;
73678;SDS011;61978;52.742;16.962;2022-10-04T11:27:46;6.90;;;1.42;;
73678;SDS011;61978;52.742;16.962;2022-10-04T11:31:23;7.67;;;2.12;;
73678;SDS011;61978;52.742;16.962;2022-10-04T11:33:43;10.70;;;2.60;;
73678;SDS011;61978;52.742;16.962;2022-10-04T11:50:02;4.97;;;1.87;;
73678;SDS011;61978;52.742;16.962;2022-10-04T12:00:22;6.15;;;1.32;;
73678;SDS011;61978;52.742;16.962;2022-10-04T12:08:37;2.77;;;1.45;;
73678;SDS011;61978;52.742;16.962;2022-10-04T12:14:36;3.80;;;0.82;;
73678;SDS011;61978;52.742;16.962;2022-10-04T12:17:31;5.37;;;1.42;;
73678;SDS011;61978;52.742;16.962;2022-10-04T12:28:59;8.55;;;3.12;;
73678;SDS011;61978;52.742;16.962;2022-10-04T12:31:34;4.92;;;2.17;;
73678;SDS011;61978;52.742;16.962;2022-10-04T12:34:14;9.10;;;3.60;;
73678;SDS011;61978;52.742;16.962;2022-10-04T12:56:06;5.70;;;2.40;;
73678;SDS011;61978;52.742;16.962;2022-10-04T13:04:38;5.70;;;2.17;;
73678;SDS011;61978;52.742;16.962;2022-10-04T13:07:12;5.03;;;1.45;;
73678;SDS011;61978;52.742;16.962;2022-10-04T13:12:59;8.03;;;3.05;;
73678;SDS011;61978;52.742;16.962;2022-10-04T13:23:53;3.75;;;1.57;;
73678;SDS011;61978;52.742;16.962;2022-10-04T13:26:30;4.37;;;1.90;;
73678;SDS011;61978;52.742;16.962;2022-10-04T13:37:31;3.67;;;2.12;;
73678;SDS011;61978;52.742;16.962;2022-10-04T13:48:29;2.77;;;1.65;;
73678;SDS011;61978;52.742;16.962;2022-10-04T13:54:20;2.15;;;0.95;;
73678;SDS011;61978;52.742;16.962;2022-10-04T14:00:10;5.20;;;1.35;;
73678;SDS011;61978;52.742;16.962;2022-10-04T14:02:59;4.30;;;1.15;;
73678;SDS011;61978;52.742;16.962;2022-10-04T14:05:39;1.98;;;1.32;;
73678;SDS011;61978;52.742;16.962;2022-10-04T14:14:01;5.62;;;1.90;;
73678;SDS011;61978;52.742;16.962;2022-10-04T14:16:36;7.05;;;2.72;;
73678;SDS011;61978;52.742;16.962;2022-10-04T14:25:13;3.75;;;1.50;;
73678;SDS011;61978;52.742;16.962;2022-10-04T14:45:14;5.15;;;1.50;;
73678;SDS011;61978;52.742;16.962;2022-10-04T14:55:59;4.90;;;1.50;;
73678;SDS011;61978;52.742;16.962;2022-10-04T15:01:19;7.22;;;1.60;;
73678;SDS011;61978;52.742;16.962;2022-10-04T15:06:54;8.78;;;1.75;;
73678;SDS011;61978;52.742;16.962;2022-10-04T15:09:45;3.58;;;1.75;;
73678;SDS011;61978;52.742;16.962;2022-10-04T15:12:37;4.47;;;1.75;;
73678;SDS011;61978;52.742;16.962;2022-10-04T15:34:30;8.03;;;4.22;;
73678;SDS011;61978;52.742;16.962;2022-10-04T15:51:16;14.45;;;5.47;;
73678;SDS011;61978;52.742;16.962;2022-10-04T15:59:24;16.57;;;7.70;;
73678;SDS011;61978;52.742;16.962;2022-10-04T16:23:42;8.48;;;2.83;;
73678;SDS011;61978;52.742;16.962;2022-10-04T16:31:40;10.00;;;2.50;;
73678;SDS011;61978;52.742;16.962;2022-10-04T16:34:16;7.37;;;3.47;;
73678;SDS011;61978;52.742;16.962;2022-10-04T16:42:51;14.95;;;6.75;;
73678;SDS011;61978;52.742;16.962;2022-10-04T16:45:28;15.05;;;5.70;;
73678;SDS011;61978;52.742;16.962;2022-10-04T16:48:12;15.53;;;3.95;;
73678;SDS011;61978;52.742;16.962;2022-10-04T17:07:36;34.70;;;12.93;;
73678;SDS011;61978;52.742;16.962;2022-10-04T17:10:15;46.18;;;17.90;;
73678;SDS011;61978;52.742;16.962;2022-10-04T17:15:48;152.97;;;54.03;;
73678;SDS011;61978;52.742;16.962;2022-10-04T17:18:39;141.62;;;50.25;;
73678;SDS011;61978;52.742;16.962;2022-10-04T17:21:12;70.70;;;23.85;;
73678;SDS011;61978;52.742;16.962;2022-10-04T17:32:09;25.50;;;8.40;;
73678;SDS011;61978;52.742;16.962;2022-10-04T17:35:05;21.85;;;6.12;;
73678;SDS011;61978;52.742;16.962;2022-10-04T17:37:45;12.10;;;4.47;;
73678;SDS011;61978;52.742;16.962;2022-10-04T17:45:56;5.97;;;2.72;;
73678;SDS011;61978;52.742;16.962;2022-10-04T17:48:48;10.18;;;2.55;;
73678;SDS011;61978;52.742;16.962;2022-10-04T17:51:38;6.53;;;2.45;;
73678;SDS011;61978;52.742;16.962;2022-10-04T17:55:11;5.55;;;1.42;;
73678;SDS011;61978;52.742;16.962;2022-10-04T18:00:23;8.25;;;1.85;;
73678;SDS011;61978;52.742;16.962;2022-10-04T18:10:53;11.60;;;3.72;;
73678;SDS011;61978;52.742;16.962;2022-10-04T18:13:20;10.93;;;4.50;;
73678;SDS011;61978;52.742;16.962;2022-10-04T18:15:56;12.35;;;4.53;;
73678;SDS011;61978;52.742;16.962;2022-10-04T18:18:42;15.30;;;6.30;;
73678;SDS011;61978;52.742;16.962;2022-10-04T18:21:18;9.98;;;6.03;;
73678;SDS011;61978;52.742;16.962;2022-10-04T18:27:13;12.55;;;6.80;;
73678;SDS011;61978;52.742;16.962;2022-10-04T18:29:18;23.47;;;8.28;;
73678;SDS011;61978;52.742;16.962;2022-10-04T18:34:53;11.55;;;5.62;;
73678;SDS011;61978;52.742;16.962;2022-10-04T18:37:32;13.80;;;5.50;;
73678;SDS011;61978;52.742;16.962;2022-10-04T18:40:51;14.43;;;6.33;;
73678;SDS011;61978;52.742;16.962;2022-10-04T18:42:58;15.15;;;6.72;;
73678;SDS011;61978;52.742;16.962;2022-10-04T18:45:28;15.25;;;7.17;;
73678;SDS011;61978;52.742;16.962;2022-10-04T18:47:58;14.38;;;7.42;;
73678;SDS011;61978;52.742;16.962;2022-10-04T18:50:34;40.80;;;16.75;;
73678;SDS011;61978;52.742;16.962;2022-10-04T18:53:19;75.42;;;33.85;;
73678;SDS011;61978;52.742;16.962;2022-10-04T18:55:59;48.05;;;22.02;;
73678;SDS011;61978;52.742;16.962;2022-10-04T19:01:48;22.25;;;11.73;;
73678;SDS011;61978;52.742;16.962;2022-10-04T19:04:45;27.22;;;12.58;;
73678;SDS011;61978;52.742;16.962;2022-10-04T19:10:10;30.55;;;15.35;;
73678;SDS011;61978;52.742;16.962;2022-10-04T19:16:10;30.25;;;18.85;;
73678;SDS011;61978;52.742;16.962;2022-10-04T19:24:34;37.58;;;19.35;;
73678;SDS011;61978;52.742;16.962;2022-10-04T19:27:14;31.95;;;19.10;;
73678;SDS011;61978;52.742;16.962;2022-10-04T19:38:58;24.87;;;16.37;;
73678;SDS011;61978;52.742;16.962;2022-10-04T19:41:40;33.70;;;18.70;;
73678;SDS011;61978;52.742;16.962;2022-10-04T19:54:41;29.42;;;16.17;;
73678;SDS011;61978;52.742;16.962;2022-10-04T19:57:10;29.12;;;16.55;;
73678;SDS011;61978;52.742;16.962;2022-10-04T19:59:41;28.77;;;15.83;;
73678;SDS011;61978;52.742;16.962;2022-10-04T20:02:10;32.70;;;17.50;;
73678;SDS011;61978;52.742;16.962;2022-10-04T20:04:38;33.02;;;17.37;;
73678;SDS011;61978;52.742;16.962;2022-10-04T20:07:09;30.52;;;18.42;;
73678;SDS011;61978;52.742;16.962;2022-10-04T20:09:54;29.40;;;17.65;;
73678;SDS011;61978;52.742;16.962;2022-10-04T20:15:18;41.88;;;24.87;;
73678;SDS011;61978;52.742;16.962;2022-10-04T20:17:47;38.05;;;20.95;;
73678;SDS011;61978;52.742;16.962;2022-10-04T20:23:08;46.57;;;28.03;;
73678;SDS011;61978;52.742;16.962;2022-10-04T20:31:03;65.30;;;34.75;;
73678;SDS011;61978;52.742;16.962;2022-10-04T20:36:47;52.20;;;30.00;;
73678;SDS011;61978;52.742;16.962;2022-10-04T20:38:47;46.98;;;28.35;;
73678;SDS011;61978;52.742;16.962;2022-10-04T20:52:47;34.88;;;19.00;;
73678;SDS011;61978;52.742;16.962;2022-10-04T20:55:19;33.10;;;20.72;;
73678;SDS011;61978;52.742;16.962;2022-10-04T20:57:49;34.15;;;22.50;;
73678;SDS011;61978;52.742;16.962;2022-10-04T21:00:20;36.53;;;22.32;;
73678;SDS011;61978;52.742;16.962;2022-10-04T21:02:48;39.50;;;23.32;;
73678;SDS011;61978;52.742;16.962;2022-10-04T21:05:21;42.55;;;21.68;;
73678;SDS011;61978;52.742;16.962;2022-10-04T21:07:45;40.00;;;22.45;;
73678;SDS011;61978;52.742;16.962;2022-10-04T21:10:16;44.98;;;21.75;;
73678;SDS011;61978;52.742;16.962;2022-10-04T21:12:45;30.60;;;21.80;;
73678;SDS011;61978;52.742;16.962;2022-10-04T21:17:59;32.45;;;19.87;;
73678;SDS011;61978;52.742;16.962;2022-10-04T21:20:45;27.22;;;17.98;;
73678;SDS011;61978;52.742;16.962;2022-10-04T21:23:29;31.90;;;18.87;;
73678;SDS011;61978;52.742;16.962;2022-10-04T21:26:20;33.18;;;19.23;;
73678;SDS011;61978;52.742;16.962;2022-10-04T21:28:55;28.00;;;17.50;;
73678;SDS011;61978;52.742;16.962;2022-10-04T21:31:21;30.10;;;16.82;;
73678;SDS011;61978;52.742;16.962;2022-10-04T21:33:49;31.73;;;17.82;;
73678;SDS011;61978;52.742;16.962;2022-10-04T21:36:16;28.38;;;17.12;;
73678;SDS011;61978;52.742;16.962;2022-10-04T21:38:45;31.07;;;16.37;;
73678;SDS011;61978;52.742;16.962;2022-10-04T21:41:11;27.35;;;16.42;;
73678;SDS011;61978;52.742;16.962;2022-10-04T21:43:38;29.80;;;15.58;;
73678;SDS011;61978;52.742;16.962;2022-10-04T21:46:04;24.72;;;14.68;;
73678;SDS011;61978;52.742;16.962;2022-10-04T21:48:32;26.77;;;15.30;;
73678;SDS011;61978;52.742;16.962;2022-10-04T21:50:58;26.27;;;13.75;;
73678;SDS011;61978;52.742;16.962;2022-10-04T21:53:24;29.05;;;14.58;;
73678;SDS011;61978;52.742;16.962;2022-10-04T21:55:51;26.07;;;15.15;;
73678;SDS011;61978;52.742;16.962;2022-10-04T21:58:17;29.57;;;14.35;;
73678;SDS011;61978;52.742;16.962;2022-10-04T22:00:44;25.08;;;15.05;;
73678;SDS011;61978;52.742;16.962;2022-10-04T22:03:11;28.77;;;16.12;;
73678;SDS011;61978;52.742;16.962;2022-10-04T22:05:37;27.62;;;15.25;;
73678;SDS011;61978;52.742;16.962;2022-10-04T22:08:03;25.40;;;14.95;;
73678;SDS011;61978;52.742;16.962;2022-10-04T22:10:29;24.70;;;14.38;;
73678;SDS011;61978;52.742;16.962;2022-10-04T22:12:56;28.15;;;13.58;;
73678;SDS011;61978;52.742;16.962;2022-10-04T22:15:23;24.95;;;13.45;;
73678;SDS011;61978;52.742;16.962;2022-10-04T22:17:51;24.90;;;13.60;;
73678;SDS011;61978;52.742;16.962;2022-10-04T22:20:17;24.45;;;12.98;;
73678;SDS011;61978;52.742;16.962;2022-10-04T22:22:44;25.37;;;12.75;;
73678;SDS011;61978;52.742;16.962;2022-10-04T22:25:18;26.37;;;13.45;;
73678;SDS011;61978;52.742;16.962;2022-10-04T22:27:48;23.15;;;13.32;;
73678;SDS011;61978;52.742;16.962;2022-10-04T22:32:49;18.90;;;12.35;;
73678;SDS011;61978;52.742;16.962;2022-10-04T22:35:18;22.62;;;13.08;;
73678;SDS011;61978;52.742;16.962;2022-10-04T22:37:45;19.62;;;13.20;;
73678;SDS011;61978;52.742;16.962;2022-10-04T22:40:14;25.85;;;13.83;;
73678;SDS011;61978;52.742;16.962;2022-10-04T22:42:49;19.80;;;13.32;;
73678;SDS011;61978;52.742;16.962;2022-10-04T22:45:24;27.82;;;14.15;;
73678;SDS011;61978;52.742;16.962;2022-10-04T22:47:50;22.87;;;13.10;;
73678;SDS011;61978;52.742;16.962;2022-10-04T22:50:31;21.40;;;13.48;;
73678;SDS011;61978;52.742;16.962;2022-10-04T22:52:56;22.05;;;13.88;;
73678;SDS011;61978;52.742;16.962;2022-10-04T22:55:24;22.62;;;13.70;;
73678;SDS011;61978;52.742;16.962;2022-10-04T22:57:51;29.70;;;13.00;;
73678;SDS011;61978;52.742;16.962;2022-10-04T23:00:17;22.58;;;12.85;;
73678;SDS011;61978;52.742;16.962;2022-10-04T23:02:44;25.02;;;12.20;;
73678;SDS011;61978;52.742;16.962;2022-10-04T23:05:17;24.98;;;11.97;;
73678;SDS011;61978;52.742;16.962;2022-10-04T23:07:45;20.08;;;11.73;;
73678;SDS011;61978;52.742;16.962;2022-10-04T23:10:14;25.23;;;11.30;;
73678;SDS011;61978;52.742;16.962;2022-10-04T23:12:43;19.77;;;11.15;;
73678;SDS011;61978;52.742;16.962;2022-10-04T23:15:17;24.00;;;12.00;;
73678;SDS011;61978;52.742;16.962;2022-10-04T23:17:49;21.07;;;11.18;;
73678;SDS011;61978;52.742;16.962;2022-10-04T23:20:16;23.15;;;11.40;;
73678;SDS011;61978;52.742;16.962;2022-10-04T23:22:45;24.63;;;11.28;;
73678;SDS011;61978;52.742;16.962;2022-10-04T23:25:23;19.12;;;11.73;;
73678;SDS011;61978;52.742;16.962;2022-10-04T23:27:57;20.17;;;11.10;;
73678;SDS011;61978;52.742;16.962;2022-10-04T23:30:29;22.07;;;11.35;;
73678;SDS011;61978;52.742;16.962;2022-10-04T23:32:56;24.95;;;11.15;;
73678;SDS011;61978;52.742;16.962;2022-10-04T23:35:30;21.68;;;11.10;;
73678;SDS011;61978;52.742;16.962;2022-10-04T23:37:57;22.73;;;11.73;;
73678;SDS011;61978;52.742;16.962;2022-10-04T23:40:26;26.17;;;11.97;;
73678;SDS011;61978;52.742;16.962;2022-10-04T23:42:53;21.20;;;11.85;;
73678;SDS011;61978;52.742;16.962;2022-10-04T23:45:22;18.87;;;11.33;;
73678;SDS011;61978;52.742;16.962;2022-10-04T23:47:56;21.77;;;12.03;;
73678;SDS011;61978;52.742;16.962;2022-10-04T23:52:52;24.47;;;12.70;;
73678;SDS011;61978;52.742;16.962;2022-10-04T23:55:24;23.22;;;11.95;;
73678;SDS011;61978;52.742;16.962;2022-10-04T23:57:57;20.05;;;12.23;;
